createdAt,value
2018-06-15T00:00:19.580Z,5.90
2018-06-15T00:02:53.577Z,6.60
2018-06-15T00:05:22.580Z,5.77
2018-06-15T00:07:51.593Z,6.03
2018-06-15T00:10:20.633Z,5.73
2018-06-15T00:12:50.400Z,6.60
2018-06-15T00:15:19.476Z,5.20
2018-06-15T00:17:48.498Z,5.37
2018-06-15T00:20:17.543Z,6.63
2018-06-15T00:22:46.609Z,7.03
2018-06-15T00:25:15.583Z,5.30
2018-06-15T00:27:44.743Z,6.37
2018-06-15T00:30:13.771Z,6.60
2018-06-15T00:32:43.033Z,5.63
2018-06-15T00:35:12.064Z,5.00
2018-06-15T00:37:41.271Z,6.87
2018-06-15T00:40:10.269Z,4.80
2018-06-15T00:42:39.248Z,7.20
2018-06-15T00:45:08.320Z,5.73
2018-06-15T00:47:37.307Z,5.77
2018-06-15T00:50:06.395Z,7.30
2018-06-15T00:52:35.605Z,5.93
2018-06-15T00:55:04.572Z,5.43
2018-06-15T00:57:45.776Z,6.67
2018-06-15T01:00:14.898Z,6.67
2018-06-15T01:02:43.859Z,5.77
2018-06-15T01:05:12.978Z,6.60
2018-06-15T01:07:42.443Z,5.80
2018-06-15T01:10:11.512Z,6.20
2018-06-15T01:12:40.485Z,5.87
2018-06-15T01:15:09.496Z,5.73
2018-06-15T01:17:39.138Z,5.90
2018-06-15T01:20:08.446Z,5.40
2018-06-15T01:22:37.539Z,6.10
2018-06-15T01:25:06.897Z,6.07
2018-06-15T01:27:35.910Z,6.00
2018-06-15T01:30:05.576Z,4.97
2018-06-15T01:32:34.817Z,5.83
2018-06-15T01:35:04.100Z,5.30
2018-06-15T01:37:33.066Z,5.73
2018-06-15T01:40:02.134Z,5.53
2018-06-15T01:42:31.479Z,5.77
2018-06-15T01:45:00.618Z,5.47
2018-06-15T01:47:29.651Z,5.63
2018-06-15T01:49:58.609Z,5.73
2018-06-15T01:52:27.674Z,6.20
2018-06-15T01:54:56.660Z,5.70
2018-06-15T01:57:25.898Z,5.50
2018-06-15T01:59:54.972Z,5.97
2018-06-15T02:02:24.095Z,6.00
2018-06-15T02:04:53.075Z,5.70
2018-06-15T02:07:22.097Z,6.27
2018-06-15T02:09:51.225Z,6.67
2018-06-15T02:12:20.416Z,6.50
2018-06-15T02:14:49.429Z,6.57
2018-06-15T02:17:18.477Z,5.60
2018-06-15T02:19:47.459Z,5.70
2018-06-15T02:22:16.460Z,5.50
2018-06-15T02:24:45.455Z,5.97
2018-06-15T02:27:14.436Z,6.10
2018-06-15T02:29:43.539Z,5.23
2018-06-15T02:32:12.765Z,5.13
2018-06-15T02:34:41.868Z,6.60
2018-06-15T02:37:10.994Z,5.10
2018-06-15T02:39:40.203Z,7.57
2018-06-15T02:42:09.285Z,6.03
2018-06-15T02:44:38.363Z,6.10
2018-06-15T02:47:07.460Z,7.23
2018-06-15T02:49:36.448Z,5.90
2018-06-15T02:52:05.453Z,6.53
2018-06-15T02:54:34.477Z,5.97
2018-06-15T02:57:03.484Z,7.60
2018-06-15T02:59:33.411Z,6.30
2018-06-15T03:02:02.483Z,7.30
2018-06-15T03:04:31.425Z,6.33
2018-06-15T03:07:00.439Z,6.53
2018-06-15T03:09:29.456Z,6.07
2018-06-15T03:11:58.472Z,6.40
2018-06-15T03:14:27.509Z,5.53
2018-06-15T03:16:56.588Z,6.20
2018-06-15T03:19:25.583Z,5.20
2018-06-15T03:21:54.572Z,5.93
2018-06-15T03:24:23.559Z,6.47
2018-06-15T03:26:52.634Z,5.60
2018-06-15T03:29:21.688Z,8.87
2018-06-15T03:31:50.836Z,4.83
2018-06-15T03:34:19.825Z,5.87
2018-06-15T03:36:49.399Z,6.10
2018-06-15T03:39:18.637Z,6.27
2018-06-15T03:41:48.496Z,6.40
2018-06-15T03:44:17.595Z,5.60
2018-06-15T03:46:46.569Z,6.40
2018-06-15T03:49:15.595Z,5.57
2018-06-15T03:51:44.677Z,5.10
2018-06-15T03:54:14.010Z,5.33
2018-06-15T03:56:43.274Z,8.20
2018-06-15T03:59:12.255Z,5.40
2018-06-15T04:01:41.587Z,6.00
2018-06-15T04:04:10.907Z,6.37
2018-06-15T04:06:40.268Z,6.10
2018-06-15T04:09:10.482Z,6.20
2018-06-15T04:11:39.798Z,5.77
2018-06-15T04:14:08.775Z,6.10
2018-06-15T04:16:38.283Z,6.00
2018-06-15T04:19:07.781Z,5.37
2018-06-15T04:21:37.157Z,5.07
2018-06-15T04:24:06.996Z,6.87
2018-06-15T04:26:36.517Z,6.60
2018-06-15T04:29:05.880Z,5.90
2018-06-15T04:31:35.690Z,7.03
2018-06-15T04:34:04.936Z,6.97
2018-06-15T04:36:34.286Z,6.07
2018-06-15T04:39:03.437Z,7.83
2018-06-15T04:41:32.527Z,7.60
2018-06-15T04:44:01.540Z,6.83
2018-06-15T04:46:30.623Z,6.70
2018-06-15T04:48:59.712Z,5.77
2018-06-15T04:51:28.813Z,5.50
2018-06-15T04:53:58.087Z,4.97
2018-06-15T04:56:27.423Z,6.07
2018-06-15T04:58:56.478Z,5.67
2018-06-15T05:01:25.506Z,5.77
2018-06-15T05:03:54.592Z,5.90
2018-06-15T05:06:23.655Z,5.53
2018-06-15T05:08:52.694Z,6.27
2018-06-15T05:11:21.877Z,6.57
2018-06-15T05:13:50.890Z,7.27
2018-06-15T05:16:19.928Z,6.20
2018-06-15T05:18:48.928Z,6.47
2018-06-15T05:21:17.953Z,5.93
2018-06-15T05:23:54.020Z,6.37
2018-06-15T05:26:23.842Z,5.43
2018-06-15T05:28:52.907Z,6.10
2018-06-15T05:31:22.404Z,6.37
2018-06-15T05:33:51.961Z,6.20
2018-06-15T05:36:21.465Z,6.13
2018-06-15T05:38:50.894Z,5.40
2018-06-15T05:41:21.008Z,6.03
2018-06-15T05:43:50.077Z,6.10
2018-06-15T05:46:19.392Z,7.00
2018-06-15T05:48:48.702Z,5.97
2018-06-15T05:51:18.958Z,5.33
2018-06-15T05:53:48.336Z,6.90
2018-06-15T05:56:17.538Z,7.97
2018-06-15T05:58:46.964Z,7.97
2018-06-15T06:01:16.411Z,7.70
2018-06-15T06:03:45.852Z,7.20
2018-06-15T06:06:15.316Z,6.37
2018-06-15T06:08:44.535Z,6.53
2018-06-15T06:11:14.040Z,6.40
2018-06-15T06:13:43.430Z,7.90
2018-06-15T06:16:12.942Z,6.90
2018-06-15T06:18:42.320Z,7.97
2018-06-15T06:21:11.750Z,8.10
2018-06-15T06:23:41.506Z,8.33
2018-06-15T06:26:10.901Z,7.87
2018-06-15T06:28:40.509Z,8.00
2018-06-15T06:31:10.349Z,7.10
2018-06-15T06:33:39.785Z,7.60
2018-06-15T06:36:09.247Z,9.60
2018-06-15T06:38:38.813Z,7.90
2018-06-15T06:41:08.043Z,7.37
2018-06-15T06:43:37.689Z,8.70
2018-06-15T06:46:06.775Z,8.77
2018-06-15T06:48:35.768Z,8.83
2018-06-15T06:51:05.268Z,7.87
2018-06-15T06:53:34.531Z,8.80
2018-06-15T06:56:03.578Z,7.70
2018-06-15T06:58:32.647Z,7.90
2018-06-15T07:01:02.427Z,7.83
2018-06-15T07:03:31.493Z,8.60
2018-06-15T07:06:00.608Z,8.83
2018-06-15T07:08:31.115Z,7.10
2018-06-15T07:11:00.161Z,8.77
2018-06-15T07:13:29.199Z,6.30
2018-06-15T07:15:58.212Z,6.50
2018-06-15T07:18:27.297Z,6.10
2018-06-15T07:20:56.404Z,6.10
2018-06-15T07:23:25.486Z,6.00
2018-06-15T07:25:54.643Z,5.03
2018-06-15T07:28:23.682Z,4.27
2018-06-15T07:30:52.811Z,4.90
2018-06-15T07:33:21.939Z,5.17
2018-06-15T07:35:51.245Z,4.63
2018-06-15T07:38:20.586Z,5.20
2018-06-15T07:40:49.545Z,5.10
2018-06-15T07:43:18.619Z,4.80
2018-06-15T07:45:47.667Z,5.47
2018-06-15T07:48:16.670Z,5.40
2018-06-15T07:50:45.756Z,4.27
2018-06-15T07:53:15.456Z,5.13
2018-06-15T07:55:44.840Z,4.17
2018-06-15T07:58:13.905Z,4.47
2018-06-15T08:00:42.933Z,4.93
2018-06-15T08:03:12.264Z,4.77
2018-06-15T08:05:41.345Z,4.63
2018-06-15T08:08:10.382Z,4.60
2018-06-15T08:10:39.381Z,4.33
2018-06-15T08:13:09.123Z,4.23
2018-06-15T08:15:38.254Z,3.80
2018-06-15T08:18:07.241Z,4.10
2018-06-15T08:20:36.189Z,3.90
2018-06-15T08:23:05.340Z,3.80
2018-06-15T08:25:34.343Z,4.20
2018-06-15T08:28:03.407Z,4.30
2018-06-15T08:30:38.506Z,3.53
2018-06-15T08:33:07.806Z,3.43
2018-06-15T08:35:37.176Z,4.03
2018-06-15T08:38:06.295Z,3.67
2018-06-15T08:40:35.254Z,2.83
2018-06-15T08:43:04.311Z,3.53
2018-06-15T08:45:33.386Z,3.93
2018-06-15T08:48:02.450Z,3.40
2018-06-15T08:50:31.460Z,4.10
2018-06-15T08:53:00.456Z,3.70
2018-06-15T08:55:29.442Z,3.77
2018-06-15T08:57:58.591Z,4.27
2018-06-15T09:00:27.684Z,4.17
2018-06-15T09:02:56.672Z,3.47
2018-06-15T09:05:25.892Z,3.57
2018-06-15T09:07:54.989Z,3.00
2018-06-15T09:10:24.090Z,3.40
2018-06-15T09:12:53.130Z,3.33
2018-06-15T09:15:22.158Z,3.53
2018-06-15T09:17:51.188Z,4.87
2018-06-15T09:20:20.288Z,4.53
2018-06-15T09:22:49.296Z,4.40
2018-06-15T09:25:18.357Z,4.03
2018-06-15T09:27:47.381Z,4.17
2018-06-15T09:30:16.493Z,4.30
2018-06-15T09:32:45.620Z,4.00
2018-06-15T09:35:14.620Z,3.93
2018-06-15T09:37:44.078Z,3.93
2018-06-15T09:40:13.180Z,4.50
2018-06-15T09:42:42.477Z,4.10
2018-06-15T09:45:11.502Z,4.57
2018-06-15T09:47:40.689Z,4.50
2018-06-15T09:50:09.799Z,4.77
2018-06-15T09:52:39.047Z,4.30
2018-06-15T09:55:08.028Z,4.60
2018-06-15T09:57:37.201Z,5.17
2018-06-15T10:00:06.228Z,3.93
2018-06-15T10:02:36.554Z,4.90
2018-06-15T10:05:05.695Z,3.93
2018-06-15T10:07:34.694Z,4.50
2018-06-15T10:10:03.764Z,5.03
2018-06-15T10:12:33.163Z,4.17
2018-06-15T10:15:02.265Z,3.70
2018-06-15T10:17:31.380Z,3.53
2018-06-15T10:20:01.185Z,4.23
2018-06-15T10:22:30.307Z,3.23
2018-06-15T10:24:59.400Z,3.70
2018-06-15T10:27:28.416Z,3.47
2018-06-15T10:29:57.466Z,3.80
2018-06-15T10:32:26.550Z,4.47
2018-06-15T10:34:55.577Z,4.00
2018-06-15T10:37:24.690Z,3.30
2018-06-15T10:39:53.729Z,3.33
2018-06-15T10:42:22.865Z,3.87
2018-06-15T10:44:52.720Z,3.60
2018-06-15T10:47:22.156Z,3.90
2018-06-15T10:49:51.179Z,3.03
2018-06-15T10:52:20.146Z,3.17
2018-06-15T10:54:49.239Z,3.50
2018-06-15T10:57:18.309Z,3.53
2018-06-15T10:59:47.414Z,4.10
2018-06-15T11:02:16.477Z,4.23
2018-06-15T11:04:45.491Z,2.80
2018-06-15T11:07:14.570Z,3.63
2018-06-15T11:09:43.767Z,3.40
2018-06-15T11:12:12.957Z,3.53
2018-06-15T11:14:43.143Z,3.40
2018-06-15T11:17:12.278Z,3.70
2018-06-15T11:19:41.608Z,3.80
2018-06-15T11:22:11.074Z,3.90
2018-06-15T11:24:40.365Z,3.33
2018-06-15T11:27:09.441Z,3.50
2018-06-15T11:29:39.012Z,3.57
2018-06-15T11:32:08.837Z,4.20
2018-06-15T11:34:38.703Z,3.67
2018-06-15T11:37:08.242Z,3.00
2018-06-15T11:39:37.325Z,3.67
2018-06-15T11:42:06.918Z,3.43
2018-06-15T11:44:36.052Z,3.40
2018-06-15T11:47:05.095Z,3.23
2018-06-15T11:49:34.249Z,2.93
2018-06-15T11:52:03.314Z,3.83
2018-06-15T11:54:33.150Z,3.63
2018-06-15T11:57:02.270Z,3.50
2018-06-15T11:59:31.336Z,3.53
2018-06-15T12:02:00.470Z,3.60
2018-06-15T12:04:29.496Z,3.70
2018-06-15T12:06:58.543Z,4.10
2018-06-15T12:09:27.547Z,3.27
2018-06-15T12:11:56.876Z,2.90
2018-06-15T12:14:25.840Z,3.20
2018-06-15T12:16:55.493Z,2.90
2018-06-15T12:19:24.455Z,3.60
2018-06-15T12:21:54.040Z,3.33
2018-06-15T12:24:29.364Z,3.07
2018-06-15T12:26:58.469Z,2.73
2018-06-15T12:29:27.571Z,3.00
2018-06-15T12:31:56.760Z,3.83
2018-06-15T12:34:25.830Z,3.10
2018-06-15T12:36:54.890Z,3.10
2018-06-15T12:39:24.105Z,3.23
2018-06-15T12:41:54.544Z,2.87
2018-06-15T12:44:24.855Z,2.53
2018-06-15T12:46:53.900Z,3.97
2018-06-15T12:49:23.322Z,3.07
2018-06-15T12:51:53.348Z,3.30
2018-06-15T12:54:22.459Z,2.40
2018-06-15T12:56:51.436Z,2.50
2018-06-15T12:59:20.467Z,3.30
2018-06-15T13:01:49.516Z,3.40
2018-06-15T13:04:19.299Z,3.07
2018-06-15T13:06:48.485Z,3.40
2018-06-15T13:09:17.598Z,3.33
2018-06-15T13:11:46.662Z,3.40
2018-06-15T13:14:15.689Z,3.43
2018-06-15T13:16:44.719Z,3.57
2018-06-15T13:19:13.814Z,3.40
2018-06-15T13:21:42.856Z,2.90
2018-06-15T13:24:12.222Z,3.03
2018-06-15T13:26:41.356Z,3.10
2018-06-15T13:29:10.370Z,2.67
2018-06-15T13:31:39.410Z,3.20
2018-06-15T13:34:08.794Z,3.00
2018-06-15T13:36:38.121Z,3.13
2018-06-15T13:39:10.787Z,3.10
2018-06-15T13:41:39.794Z,3.40
2018-06-15T13:44:09.165Z,3.00
2018-06-15T13:46:38.492Z,3.20
2018-06-15T13:49:07.610Z,2.97
2018-06-15T13:51:36.840Z,3.20
2018-06-15T13:54:05.900Z,3.13
2018-06-15T13:56:34.889Z,3.60
2018-06-15T13:59:03.949Z,2.77
2018-06-15T14:01:33.007Z,3.43
2018-06-15T14:04:02.125Z,3.00
2018-06-15T14:06:31.246Z,4.50
2018-06-15T14:09:00.383Z,3.20
2018-06-15T14:11:29.453Z,2.60
2018-06-15T14:13:58.588Z,2.70
2018-06-15T14:16:27.684Z,2.80
2018-06-15T14:18:57.112Z,2.80
2018-06-15T14:21:27.512Z,2.83
2018-06-15T14:23:56.608Z,10.00
2018-06-15T14:26:25.680Z,3.90
2018-06-15T14:28:54.901Z,3.67
2018-06-15T14:31:24.091Z,2.53
2018-06-15T14:33:55.412Z,3.47
2018-06-15T14:36:24.574Z,5.57
2018-06-15T14:38:53.649Z,11.77
2018-06-15T14:41:22.712Z,2.40
2018-06-15T14:43:51.799Z,4.23
2018-06-15T14:46:20.869Z,3.03
2018-06-15T14:48:50.003Z,3.00
2018-06-15T14:51:19.033Z,2.80
2018-06-15T14:53:48.016Z,2.90
2018-06-15T14:56:17.039Z,2.50
2018-06-15T14:58:46.093Z,2.57
2018-06-15T15:01:15.211Z,2.93
2018-06-15T15:03:44.376Z,2.90
2018-06-15T15:06:14.192Z,4.00
2018-06-15T15:08:43.139Z,2.93
2018-06-15T15:11:12.242Z,2.73
2018-06-15T15:13:41.334Z,2.93
2018-06-15T15:16:10.438Z,2.77
2018-06-15T15:18:39.667Z,2.97
2018-06-15T15:21:08.730Z,3.70
2018-06-15T15:23:38.001Z,3.20
2018-06-15T15:26:07.195Z,3.00
2018-06-15T15:28:36.318Z,3.00
2018-06-15T15:31:05.597Z,2.70
2018-06-15T15:33:34.650Z,2.70
2018-06-15T15:36:03.973Z,2.77
2018-06-15T15:38:33.064Z,2.80
2018-06-15T15:41:02.189Z,3.07
2018-06-15T15:43:31.189Z,3.17
2018-06-15T15:46:00.165Z,2.90
2018-06-15T15:48:29.352Z,2.90
2018-06-15T15:50:58.414Z,2.97
2018-06-15T15:53:27.485Z,2.50
2018-06-15T15:55:57.046Z,3.03
2018-06-15T15:58:26.025Z,2.90
2018-06-15T16:00:55.175Z,3.33
2018-06-15T16:03:24.320Z,2.40
2018-06-15T16:05:53.398Z,2.40
2018-06-15T16:08:22.528Z,2.83
2018-06-15T16:10:51.986Z,2.13
2018-06-15T16:13:21.399Z,3.17
2018-06-15T16:15:50.899Z,3.30
2018-06-15T16:18:20.388Z,2.23
2018-06-15T16:20:49.684Z,2.60
2018-06-15T16:23:19.034Z,2.80
2018-06-15T16:25:48.435Z,2.80
2018-06-15T16:28:18.044Z,3.17
2018-06-15T16:30:47.477Z,2.30
2018-06-15T16:33:16.831Z,2.77
2018-06-15T16:35:46.902Z,3.30
2018-06-15T16:38:16.410Z,2.53
2018-06-15T16:40:45.776Z,2.83
2018-06-15T16:43:15.354Z,2.67
2018-06-15T16:45:44.796Z,2.20
2018-06-15T16:48:14.052Z,2.77
2018-06-15T16:50:43.388Z,2.70
2018-06-15T16:53:12.438Z,2.70
2018-06-15T16:55:41.493Z,2.47
2018-06-15T16:58:11.928Z,2.77
2018-06-15T17:00:41.418Z,3.27
2018-06-15T17:03:10.936Z,3.00
2018-06-15T17:05:40.806Z,3.10
2018-06-15T17:08:10.621Z,3.50
2018-06-15T17:10:39.897Z,2.70
2018-06-15T17:13:09.285Z,4.63
2018-06-15T17:15:38.647Z,3.23
2018-06-15T17:18:08.616Z,2.53
2018-06-15T17:20:37.966Z,3.73
2018-06-15T17:23:07.394Z,3.10
2018-06-15T17:25:36.759Z,2.83
2018-06-15T17:28:06.562Z,3.30
2018-06-15T17:30:36.356Z,3.03
2018-06-15T17:33:05.781Z,3.40
2018-06-15T17:35:35.109Z,2.93
2018-06-15T17:38:04.267Z,3.00
2018-06-15T17:40:33.410Z,2.80
2018-06-15T17:43:02.467Z,3.30
2018-06-15T17:45:31.557Z,3.30
2018-06-15T17:48:00.784Z,3.77
2018-06-15T17:50:30.504Z,3.70
2018-06-15T17:52:59.747Z,2.60
2018-06-15T17:55:28.888Z,2.50
2018-06-15T17:57:58.091Z,3.10
2018-06-15T18:00:27.319Z,2.73
2018-06-15T18:02:56.815Z,2.90
2018-06-15T18:05:26.195Z,3.00
2018-06-15T18:07:55.672Z,3.60
2018-06-15T18:10:25.199Z,3.00
2018-06-15T18:12:54.592Z,3.20
2018-06-15T18:15:24.102Z,2.90
2018-06-15T18:17:53.475Z,2.67
2018-06-15T18:20:24.259Z,3.37
2018-06-15T18:22:54.562Z,3.33
2018-06-15T18:25:24.032Z,2.97
2018-06-15T18:27:53.413Z,2.87
2018-06-15T18:30:22.595Z,3.80
2018-06-15T18:32:52.144Z,2.87
2018-06-15T18:35:21.488Z,3.50
2018-06-15T18:37:52.461Z,2.43
2018-06-15T18:40:21.907Z,3.47
2018-06-15T18:42:51.221Z,3.07
2018-06-15T18:45:20.735Z,3.40
2018-06-15T18:47:50.285Z,3.03
2018-06-15T18:50:19.553Z,3.23
2018-06-15T18:52:49.720Z,3.60
2018-06-15T18:55:19.116Z,3.57
2018-06-15T18:57:48.475Z,3.17
2018-06-15T19:00:17.838Z,3.20
2018-06-15T19:02:47.145Z,3.00
2018-06-15T19:05:17.670Z,3.70
2018-06-15T19:07:48.228Z,3.80
2018-06-15T19:10:18.012Z,2.97
2018-06-15T19:12:47.600Z,3.10
2018-06-15T19:15:16.991Z,3.70
2018-06-15T19:17:46.352Z,3.20
2018-06-15T19:20:15.682Z,3.03
2018-06-15T19:22:45.276Z,3.20
2018-06-15T19:25:14.631Z,3.60
2018-06-15T19:27:44.075Z,3.60
2018-06-15T19:30:13.568Z,3.10
2018-06-15T19:32:44.021Z,3.20
2018-06-15T19:35:13.403Z,3.73
2018-06-15T19:37:42.858Z,3.30
2018-06-15T19:40:12.360Z,4.03
2018-06-15T19:42:41.761Z,3.50
2018-06-15T19:45:11.318Z,3.47
2018-06-15T19:47:40.832Z,3.80
2018-06-15T19:50:10.245Z,4.00
2018-06-15T19:52:39.546Z,4.07
2018-06-15T19:55:08.814Z,3.90
2018-06-15T19:57:38.259Z,3.17
2018-06-15T20:00:08.527Z,3.90
2018-06-15T20:02:37.895Z,3.87
2018-06-15T20:05:07.332Z,3.87
2018-06-15T20:07:36.660Z,4.10
2018-06-15T20:10:05.960Z,3.90
2018-06-15T20:12:35.248Z,4.10
2018-06-15T20:15:04.962Z,3.90
2018-06-15T20:17:34.418Z,3.50
2018-06-15T20:20:03.832Z,3.90
2018-06-15T20:22:33.835Z,3.57
2018-06-15T20:25:05.127Z,3.77
2018-06-15T20:27:34.451Z,3.30
2018-06-15T20:30:04.059Z,3.93
2018-06-15T20:32:33.443Z,4.03
2018-06-15T20:35:02.698Z,3.97
2018-06-15T20:37:32.297Z,3.73
2018-06-15T20:40:01.567Z,3.80
2018-06-15T20:42:30.954Z,3.80
2018-06-15T20:45:00.578Z,4.10
2018-06-15T20:47:30.089Z,3.37
2018-06-15T20:49:59.716Z,4.10
2018-06-15T20:52:29.247Z,3.63
2018-06-15T20:54:58.701Z,3.80
2018-06-15T20:57:28.916Z,3.63
2018-06-15T20:59:58.425Z,3.90
2018-06-15T21:02:27.714Z,3.70
2018-06-15T21:04:57.030Z,4.20
2018-06-15T21:07:27.412Z,4.33
2018-06-15T21:09:57.100Z,3.80
2018-06-15T21:12:26.557Z,4.47
2018-06-15T21:14:56.078Z,4.20
2018-06-15T21:17:25.456Z,3.63
2018-06-15T21:19:54.941Z,4.93
2018-06-15T21:22:24.353Z,4.93
2018-06-15T21:24:53.728Z,3.80
2018-06-15T21:27:23.317Z,4.70
2018-06-15T21:29:53.020Z,4.63
2018-06-15T21:32:22.535Z,4.40
2018-06-15T21:34:52.211Z,4.20
2018-06-15T21:37:22.259Z,4.67
2018-06-15T21:39:51.867Z,4.47
2018-06-15T21:42:23.290Z,5.23
2018-06-15T21:44:52.749Z,3.70
2018-06-15T21:47:22.344Z,4.13
2018-06-15T21:49:52.698Z,4.13
2018-06-15T21:52:22.133Z,3.80
2018-06-15T21:54:51.635Z,4.60
2018-06-15T21:57:21.116Z,3.60
2018-06-15T21:59:50.548Z,4.47
2018-06-15T22:02:20.106Z,4.53
2018-06-15T22:04:49.403Z,4.33
2018-06-15T22:07:18.822Z,3.40
2018-06-15T22:09:48.322Z,4.73
2018-06-15T22:12:17.816Z,3.90
2018-06-15T22:14:47.115Z,5.20
2018-06-15T22:17:16.608Z,5.23
2018-06-15T22:19:46.069Z,4.50
2018-06-15T22:22:15.499Z,4.90
2018-06-15T22:24:45.036Z,4.17
2018-06-15T22:27:15.374Z,4.50
2018-06-15T22:29:45.567Z,4.13
2018-06-15T22:32:15.077Z,4.13
2018-06-15T22:34:44.341Z,4.33
2018-06-15T22:37:14.510Z,4.20
2018-06-15T22:39:43.793Z,4.80
2018-06-15T22:42:13.214Z,4.93
2018-06-15T22:44:42.630Z,5.27
2018-06-15T22:47:12.074Z,4.60
2018-06-15T22:49:41.639Z,4.20
2018-06-15T22:52:11.152Z,5.10
2018-06-15T22:54:40.653Z,5.40
2018-06-15T22:57:10.029Z,4.17
2018-06-15T22:59:39.539Z,5.27
2018-06-15T23:02:09.085Z,5.57
2018-06-15T23:04:38.601Z,3.80
2018-06-15T23:07:07.901Z,3.90
2018-06-15T23:09:37.264Z,4.20
2018-06-15T23:12:06.506Z,4.83
2018-06-15T23:14:35.963Z,4.80
2018-06-15T23:17:05.420Z,4.60
2018-06-15T23:19:34.857Z,4.60
2018-06-15T23:22:04.266Z,4.73
2018-06-15T23:24:33.720Z,5.33
2018-06-15T23:27:02.988Z,4.80
2018-06-15T23:29:32.309Z,5.17
2018-06-15T23:32:01.595Z,4.30
2018-06-15T23:34:30.919Z,4.63
2018-06-15T23:37:00.252Z,4.60
2018-06-15T23:39:29.581Z,4.50
2018-06-15T23:41:58.988Z,4.77
2018-06-15T23:44:28.312Z,5.20
2018-06-15T23:46:57.610Z,4.50
2018-06-15T23:49:27.004Z,4.70
2018-06-15T23:51:56.339Z,5.23
2018-06-15T23:54:25.613Z,4.40
2018-06-15T23:56:55.843Z,4.20
2018-06-15T23:59:25.201Z,4.43
